Time;durP1;ratioP1;P1;durP2;ratioP2;P2;SDS_P1;SDS_P2;PMS_P1;PMS_P2;Temp;Humidity;BMP_temperature;BMP_pressure;BME280_temperature;BME280_humidity;BME280_pressure;Samples;Min_cycle;Max_cycle;Signal;HPM_P1;HPM_P2
2021/10/01 12:29:03;;;;;;;5.63;2.23;;;15.20;90.60;;;;;;5097777;27;20392;-71
2021/10/01 12:31:36;;;;;;;8.13;2.23;;;14.90;91.70;;;;;;5098747;28;20485;-74
2021/10/01 12:34:03;;;;;;;4.43;1.87;;;14.60;92.70;;;;;;5099351;28;20134;-73
2021/10/01 12:36:33;;;;;;;6.10;2.50;;;14.40;93.80;;;;;;5106032;28;20393;-72
2021/10/01 12:39:00;;;;;;;9.20;1.97;;;14.30;94.30;;;;;;5100948;28;20105;-69
2021/10/01 12:41:27;;;;;;;5.10;2.30;;;14.20;94.80;;;;;;5105776;28;20082;-71
2021/10/01 12:43:59;;;;;;;5.83;2.10;;;14.20;95.20;;;;;;5106079;28;20566;-71
2021/10/01 12:46:46;;;;;;;10.52;2.35;;;14.20;95.30;;;;;;5102127;28;20131;-78
2021/10/01 12:49:22;;;;;;;7.97;2.10;;;14.20;95.50;;;;;;5104244;28;20064;-74
2021/10/01 12:52:10;;;;;;;6.00;2.03;;;14.20;95.70;;;;;;5103907;28;20124;-74
2021/10/01 12:54:44;;;;;;;8.87;2.63;;;14.20;95.90;;;;;;5106233;28;20040;-73
2021/10/01 12:57:28;;;;;;;6.03;2.33;;;14.20;96.00;;;;;;5104583;28;20058;-70
2021/10/01 13:00:00;;;;;;;8.53;2.50;;;14.20;95.90;;;;;;5118152;27;20100;-69
2021/10/01 13:02:46;;;;;;;5.63;2.70;;;14.30;96.10;;;;;;5085025;28;20079;-73
2021/10/01 13:05:18;;;;;;;6.77;2.50;;;14.30;96.20;;;;;;5084424;28;20052;-72
2021/10/01 13:07:56;;;;;;;5.90;2.93;;;14.30;96.20;;;;;;5084956;28;20516;-72
2021/10/01 13:10:48;;;;;;;8.93;2.53;;;14.30;96.30;;;;;;5102363;28;20068;-72
2021/10/01 13:13:15;;;;;;;5.80;2.95;;;14.30;96.40;;;;;;5104216;28;20047;-71
2021/10/01 13:16:00;;;;;;;11.10;3.27;;;14.30;96.50;;;;;;5105632;28;20135;-71
2021/10/01 13:18:31;;;;;;;9.53;3.10;;;14.30;96.60;;;;;;5105174;28;20097;-71
2021/10/01 13:21:09;;;;;;;;;;;14.30;96.70;;;;;;5104316;28;20043;-70
2021/10/01 13:23:59;;;;;;;8.17;3.47;;;14.40;96.60;;;;;;5104330;28;19920;-68
2021/10/01 13:26:41;;;;;;;8.17;3.30;;;14.40;96.70;;;;;;5096297;28;20056;-68
2021/10/01 13:29:10;;;;;;;;;;;14.40;96.80;;;;;;5105447;28;20690;-70
2021/10/01 13:31:42;;;;;;;7.40;2.40;;;14.40;96.70;;;;;;5105325;28;20460;-70
2021/10/01 13:34:08;;;;;;;9.00;3.50;;;14.40;96.90;;;;;;5102588;28;20424;-71
2021/10/01 13:36:34;;;;;;;8.03;3.13;;;14.50;97.10;;;;;;5104346;28;20048;-71
2021/10/01 13:39:00;;;;;;;6.57;3.00;;;14.50;97.20;;;;;;5095691;28;20093;-72
2021/10/01 13:41:26;;;;;;;7.33;3.00;;;14.50;97.20;;;;;;5089102;28;20071;-71
2021/10/01 13:43:52;;;;;;;8.17;3.30;;;14.50;97.30;;;;;;5089828;28;20071;-74
2021/10/01 13:46:21;;;;;;;9.70;3.03;;;14.50;97.30;;;;;;5090059;28;20055;-72
2021/10/01 13:48:47;;;;;;;9.83;3.13;;;14.50;97.30;;;;;;5086048;28;20070;-73
2021/10/01 13:51:13;;;;;;;7.33;3.00;;;14.60;97.20;;;;;;5090724;28;20044;-72
2021/10/01 13:53:39;;;;;;;7.03;2.47;;;14.60;97.20;;;;;;5091391;28;20048;-73
2021/10/01 13:56:05;;;;;;;8.17;3.27;;;14.70;96.70;;;;;;5088970;28;20834;-70
2021/10/01 13:58:31;;;;;;;6.87;2.53;;;14.70;96.50;;;;;;5091484;28;20660;-69
2021/10/01 14:00:57;;;;;;;4.77;1.73;;;14.70;96.20;;;;;;5090870;28;20044;-70
2021/10/01 14:03:23;;;;;;;5.80;2.13;;;14.80;95.80;;;;;;5090573;28;20096;-69
2021/10/01 14:05:50;;;;;;;6.43;2.10;;;14.80;95.40;;;;;;5090920;28;20732;-70
2021/10/01 14:08:16;;;;;;;6.70;2.00;;;14.80;95.00;;;;;;5090917;28;20051;-70
2021/10/01 14:10:43;;;;;;;5.97;1.60;;;14.90;94.80;;;;;;5090092;28;20067;-70
2021/10/01 14:13:11;;;;;;;9.50;2.40;;;14.90;94.50;;;;;;5091105;28;20048;-70
2021/10/01 14:15:41;;;;;;;8.83;2.07;;;14.90;94.20;;;;;;5091025;28;20052;-70
2021/10/01 14:18:07;;;;;;;6.07;1.97;;;14.90;94.00;;;;;;5088358;28;20055;-70
2021/10/01 14:20:33;;;;;;;4.43;1.50;;;14.90;94.10;;;;;;5087775;28;20044;-70
2021/10/01 14:22:59;;;;;;;6.93;2.00;;;14.90;94.00;;;;;;5087883;28;20048;-70
